sensor_id;sensor_type;location;lat;lon;timestamp;P1;durP1;ratioP1;P2;durP2;ratioP2
41799;SDS011;27468;47.460;19.034;2022-10-18T00:01:02;28.33;;;15.85;;
41799;SDS011;27468;47.460;19.034;2022-10-18T00:03:28;24.70;;;15.98;;
41799;SDS011;27468;47.460;19.034;2022-10-18T00:05:54;24.67;;;15.30;;
41799;SDS011;27468;47.460;19.034;2022-10-18T00:08:19;23.60;;;15.07;;
41799;SDS011;27468;47.460;19.034;2022-10-18T00:10:45;25.95;;;15.65;;
41799;SDS011;27468;47.460;19.034;2022-10-18T00:13:11;27.05;;;16.98;;
41799;SDS011;27468;47.460;19.034;2022-10-18T00:15:36;23.52;;;15.00;;
41799;SDS011;27468;47.460;19.034;2022-10-18T00:18:02;25.83;;;15.68;;
41799;SDS011;27468;47.460;19.034;2022-10-18T00:20:28;23.65;;;15.63;;
41799;SDS011;27468;47.460;19.034;2022-10-18T00:22:53;23.23;;;15.18;;
41799;SDS011;27468;47.460;19.034;2022-10-18T00:25:19;22.35;;;15.25;;
41799;SDS011;27468;47.460;19.034;2022-10-18T00:27:44;22.98;;;15.07;;
41799;SDS011;27468;47.460;19.034;2022-10-18T00:30:10;24.95;;;15.18;;
41799;SDS011;27468;47.460;19.034;2022-10-18T00:32:36;26.67;;;15.18;;
41799;SDS011;27468;47.460;19.034;2022-10-18T00:35:03;25.00;;;15.73;;
41799;SDS011;27468;47.460;19.034;2022-10-18T00:37:29;23.52;;;14.75;;
41799;SDS011;27468;47.460;19.034;2022-10-18T00:39:55;25.42;;;14.75;;
41799;SDS011;27468;47.460;19.034;2022-10-18T00:42:21;27.25;;;15.93;;
41799;SDS011;27468;47.460;19.034;2022-10-18T00:47:16;25.55;;;15.23;;
41799;SDS011;27468;47.460;19.034;2022-10-18T00:49:45;23.98;;;15.43;;
41799;SDS011;27468;47.460;19.034;2022-10-18T00:52:16;22.92;;;14.95;;
41799;SDS011;27468;47.460;19.034;2022-10-18T00:54:45;26.25;;;15.35;;
41799;SDS011;27468;47.460;19.034;2022-10-18T00:57:12;23.23;;;15.15;;
41799;SDS011;27468;47.460;19.034;2022-10-18T00:59:39;23.85;;;14.85;;
41799;SDS011;27468;47.460;19.034;2022-10-18T01:02:05;24.10;;;14.88;;
41799;SDS011;27468;47.460;19.034;2022-10-18T01:04:31;20.58;;;14.38;;
41799;SDS011;27468;47.460;19.034;2022-10-18T01:09:48;21.67;;;14.45;;
41799;SDS011;27468;47.460;19.034;2022-10-18T01:15:28;21.60;;;14.57;;
41799;SDS011;27468;47.460;19.034;2022-10-18T01:32:47;23.45;;;15.38;;
41799;SDS011;27468;47.460;19.034;2022-10-18T01:35:18;22.15;;;14.07;;
41799;SDS011;27468;47.460;19.034;2022-10-18T01:37:48;21.80;;;15.18;;
41799;SDS011;27468;47.460;19.034;2022-10-18T01:40:17;24.92;;;15.75;;
41799;SDS011;27468;47.460;19.034;2022-10-18T01:42:45;25.38;;;15.88;;
41799;SDS011;27468;47.460;19.034;2022-10-18T01:45:13;21.95;;;14.90;;
41799;SDS011;27468;47.460;19.034;2022-10-18T01:47:39;25.63;;;15.35;;
41799;SDS011;27468;47.460;19.034;2022-10-18T01:50:08;25.95;;;14.68;;
41799;SDS011;27468;47.460;19.034;2022-10-18T01:52:34;23.77;;;14.68;;
41799;SDS011;27468;47.460;19.034;2022-10-18T01:54:59;22.13;;;14.98;;
41799;SDS011;27468;47.460;19.034;2022-10-18T01:57:38;21.25;;;14.48;;
41799;SDS011;27468;47.460;19.034;2022-10-18T02:02:40;23.05;;;15.55;;
41799;SDS011;27468;47.460;19.034;2022-10-18T02:08:38;23.10;;;15.15;;
41799;SDS011;27468;47.460;19.034;2022-10-18T02:10:58;22.40;;;15.18;;
41799;SDS011;27468;47.460;19.034;2022-10-18T02:13:29;22.90;;;15.02;;
41799;SDS011;27468;47.460;19.034;2022-10-18T02:15:58;22.02;;;14.23;;
41799;SDS011;27468;47.460;19.034;2022-10-18T02:18:41;23.90;;;14.55;;
41799;SDS011;27468;47.460;19.034;2022-10-18T02:21:11;22.27;;;14.63;;
41799;SDS011;27468;47.460;19.034;2022-10-18T02:23:39;25.05;;;15.50;;
41799;SDS011;27468;47.460;19.034;2022-10-18T02:26:07;25.48;;;14.45;;
41799;SDS011;27468;47.460;19.034;2022-10-18T02:28:32;24.95;;;15.10;;
41799;SDS011;27468;47.460;19.034;2022-10-18T02:31:13;23.55;;;14.88;;
41799;SDS011;27468;47.460;19.034;2022-10-18T02:39:22;23.23;;;14.55;;
41799;SDS011;27468;47.460;19.034;2022-10-18T02:41:53;23.10;;;14.65;;
41799;SDS011;27468;47.460;19.034;2022-10-18T02:44:20;23.55;;;15.10;;
41799;SDS011;27468;47.460;19.034;2022-10-18T02:46:45;23.55;;;14.70;;
41799;SDS011;27468;47.460;19.034;2022-10-18T02:49:12;23.52;;;14.80;;
41799;SDS011;27468;47.460;19.034;2022-10-18T02:51:37;22.60;;;15.00;;
41799;SDS011;27468;47.460;19.034;2022-10-18T02:54:03;21.25;;;14.68;;
41799;SDS011;27468;47.460;19.034;2022-10-18T02:56:28;23.65;;;14.20;;
41799;SDS011;27468;47.460;19.034;2022-10-18T02:58:53;25.30;;;14.80;;
41799;SDS011;27468;47.460;19.034;2022-10-18T03:01:19;22.33;;;13.90;;
41799;SDS011;27468;47.460;19.034;2022-10-18T03:03:44;22.70;;;14.55;;
41799;SDS011;27468;47.460;19.034;2022-10-18T03:06:10;24.00;;;15.13;;
41799;SDS011;27468;47.460;19.034;2022-10-18T03:08:35;21.92;;;13.77;;
41799;SDS011;27468;47.460;19.034;2022-10-18T03:11:01;23.42;;;14.63;;
41799;SDS011;27468;47.460;19.034;2022-10-18T03:13:26;23.40;;;14.95;;
41799;SDS011;27468;47.460;19.034;2022-10-18T03:15:51;21.40;;;14.48;;
41799;SDS011;27468;47.460;19.034;2022-10-18T03:18:17;21.40;;;14.35;;
41799;SDS011;27468;47.460;19.034;2022-10-18T03:20:42;22.33;;;14.50;;
41799;SDS011;27468;47.460;19.034;2022-10-18T03:23:07;21.88;;;13.80;;
41799;SDS011;27468;47.460;19.034;2022-10-18T03:25:33;22.65;;;14.65;;
41799;SDS011;27468;47.460;19.034;2022-10-18T03:27:58;22.25;;;13.88;;
41799;SDS011;27468;47.460;19.034;2022-10-18T03:30:24;23.40;;;14.52;;
41799;SDS011;27468;47.460;19.034;2022-10-18T03:32:49;23.40;;;14.52;;
41799;SDS011;27468;47.460;19.034;2022-10-18T03:35:15;21.42;;;14.48;;
41799;SDS011;27468;47.460;19.034;2022-10-18T03:37:40;23.30;;;14.57;;
41799;SDS011;27468;47.460;19.034;2022-10-18T03:40:06;23.35;;;14.73;;
41799;SDS011;27468;47.460;19.034;2022-10-18T03:42:32;22.58;;;14.93;;
41799;SDS011;27468;47.460;19.034;2022-10-18T03:44:58;22.13;;;14.50;;
41799;SDS011;27468;47.460;19.034;2022-10-18T03:47:23;23.05;;;14.57;;
41799;SDS011;27468;47.460;19.034;2022-10-18T03:49:48;23.42;;;15.07;;
41799;SDS011;27468;47.460;19.034;2022-10-18T03:52:14;22.55;;;14.80;;
41799;SDS011;27468;47.460;19.034;2022-10-18T03:54:39;22.20;;;14.63;;
41799;SDS011;27468;47.460;19.034;2022-10-18T03:57:05;24.02;;;14.98;;
41799;SDS011;27468;47.460;19.034;2022-10-18T03:59:30;24.80;;;15.60;;
41799;SDS011;27468;47.460;19.034;2022-10-18T04:01:55;26.83;;;15.88;;
41799;SDS011;27468;47.460;19.034;2022-10-18T04:04:21;25.02;;;14.57;;
41799;SDS011;27468;47.460;19.034;2022-10-18T04:06:46;26.38;;;16.30;;
41799;SDS011;27468;47.460;19.034;2022-10-18T04:09:12;27.50;;;16.65;;
41799;SDS011;27468;47.460;19.034;2022-10-18T04:11:38;26.13;;;15.82;;
41799;SDS011;27468;47.460;19.034;2022-10-18T04:14:03;27.15;;;16.42;;
41799;SDS011;27468;47.460;19.034;2022-10-18T04:16:28;26.45;;;15.65;;
41799;SDS011;27468;47.460;19.034;2022-10-18T04:18:54;25.38;;;15.90;;
41799;SDS011;27468;47.460;19.034;2022-10-18T04:21:19;24.70;;;16.40;;
41799;SDS011;27468;47.460;19.034;2022-10-18T04:23:48;27.75;;;15.55;;
41799;SDS011;27468;47.460;19.034;2022-10-18T04:26:14;25.13;;;15.32;;
41799;SDS011;27468;47.460;19.034;2022-10-18T04:28:40;27.45;;;16.77;;
41799;SDS011;27468;47.460;19.034;2022-10-18T04:31:06;28.27;;;16.15;;
41799;SDS011;27468;47.460;19.034;2022-10-18T04:33:32;21.33;;;14.95;;
41799;SDS011;27468;47.460;19.034;2022-10-18T04:35:57;26.77;;;15.90;;
41799;SDS011;27468;47.460;19.034;2022-10-18T04:38:23;28.42;;;16.13;;
41799;SDS011;27468;47.460;19.034;2022-10-18T04:40:48;26.38;;;15.88;;
41799;SDS011;27468;47.460;19.034;2022-10-18T04:43:14;27.25;;;15.77;;
41799;SDS011;27468;47.460;19.034;2022-10-18T04:45:39;25.55;;;16.00;;
41799;SDS011;27468;47.460;19.034;2022-10-18T04:48:05;28.98;;;16.00;;
41799;SDS011;27468;47.460;19.034;2022-10-18T04:50:31;30.58;;;17.27;;
41799;SDS011;27468;47.460;19.034;2022-10-18T04:52:56;29.58;;;16.65;;
41799;SDS011;27468;47.460;19.034;2022-10-18T04:55:22;29.35;;;17.10;;
41799;SDS011;27468;47.460;19.034;2022-10-18T04:57:47;27.27;;;16.33;;
41799;SDS011;27468;47.460;19.034;2022-10-18T05:00:13;36.47;;;24.60;;
41799;SDS011;27468;47.460;19.034;2022-10-18T05:02:39;29.45;;;18.48;;
41799;SDS011;27468;47.460;19.034;2022-10-18T05:05:04;31.67;;;18.15;;
41799;SDS011;27468;47.460;19.034;2022-10-18T05:07:30;27.20;;;16.58;;
41799;SDS011;27468;47.460;19.034;2022-10-18T05:09:55;30.05;;;17.10;;
41799;SDS011;27468;47.460;19.034;2022-10-18T05:12:21;28.05;;;16.73;;
41799;SDS011;27468;47.460;19.034;2022-10-18T05:14:53;34.67;;;17.88;;
41799;SDS011;27468;47.460;19.034;2022-10-18T05:17:18;28.40;;;17.40;;
41799;SDS011;27468;47.460;19.034;2022-10-18T05:19:43;28.02;;;17.80;;
41799;SDS011;27468;47.460;19.034;2022-10-18T05:22:09;28.05;;;17.33;;
41799;SDS011;27468;47.460;19.034;2022-10-18T05:24:34;29.38;;;17.13;;
41799;SDS011;27468;47.460;19.034;2022-10-18T05:27:00;26.80;;;16.65;;
41799;SDS011;27468;47.460;19.034;2022-10-18T05:29:25;26.13;;;16.52;;
41799;SDS011;27468;47.460;19.034;2022-10-18T05:31:50;26.15;;;16.80;;
41799;SDS011;27468;47.460;19.034;2022-10-18T05:34:16;29.83;;;17.17;;
41799;SDS011;27468;47.460;19.034;2022-10-18T05:36:42;29.52;;;17.67;;
41799;SDS011;27468;47.460;19.034;2022-10-18T05:39:08;31.65;;;17.67;;
41799;SDS011;27468;47.460;19.034;2022-10-18T05:41:33;26.85;;;16.45;;
41799;SDS011;27468;47.460;19.034;2022-10-18T05:44:03;32.90;;;19.10;;
41799;SDS011;27468;47.460;19.034;2022-10-18T05:46:30;31.88;;;18.65;;
41799;SDS011;27468;47.460;19.034;2022-10-18T05:48:56;32.65;;;18.70;;
41799;SDS011;27468;47.460;19.034;2022-10-18T05:51:22;32.13;;;18.92;;
41799;SDS011;27468;47.460;19.034;2022-10-18T05:53:47;33.50;;;19.80;;
41799;SDS011;27468;47.460;19.034;2022-10-18T05:56:12;31.85;;;19.38;;
41799;SDS011;27468;47.460;19.034;2022-10-18T05:58:39;32.35;;;19.73;;
41799;SDS011;27468;47.460;19.034;2022-10-18T06:01:05;32.60;;;19.75;;
41799;SDS011;27468;47.460;19.034;2022-10-18T06:03:31;32.10;;;19.67;;
41799;SDS011;27468;47.460;19.034;2022-10-18T06:05:58;35.25;;;19.33;;
41799;SDS011;27468;47.460;19.034;2022-10-18T06:08:31;35.63;;;20.13;;
41799;SDS011;27468;47.460;19.034;2022-10-18T06:10:57;33.78;;;20.23;;
41799;SDS011;27468;47.460;19.034;2022-10-18T06:13:22;32.80;;;19.60;;
41799;SDS011;27468;47.460;19.034;2022-10-18T06:15:48;35.80;;;20.23;;
41799;SDS011;27468;47.460;19.034;2022-10-18T06:18:13;31.10;;;18.90;;
41799;SDS011;27468;47.460;19.034;2022-10-18T06:20:39;31.90;;;19.17;;
41799;SDS011;27468;47.460;19.034;2022-10-18T06:23:05;32.65;;;19.90;;
41799;SDS011;27468;47.460;19.034;2022-10-18T06:25:30;32.08;;;20.25;;
41799;SDS011;27468;47.460;19.034;2022-10-18T06:27:56;30.65;;;19.40;;
41799;SDS011;27468;47.460;19.034;2022-10-18T06:30:21;33.80;;;19.83;;
41799;SDS011;27468;47.460;19.034;2022-10-18T06:32:46;31.88;;;19.35;;
41799;SDS011;27468;47.460;19.034;2022-10-18T06:35:12;34.67;;;19.98;;
41799;SDS011;27468;47.460;19.034;2022-10-18T06:37:37;31.77;;;19.63;;
41799;SDS011;27468;47.460;19.034;2022-10-18T06:40:03;33.17;;;19.65;;
41799;SDS011;27468;47.460;19.034;2022-10-18T06:42:30;30.73;;;19.70;;
41799;SDS011;27468;47.460;19.034;2022-10-18T06:44:55;32.45;;;20.33;;
41799;SDS011;27468;47.460;19.034;2022-10-18T06:47:21;35.38;;;19.67;;
41799;SDS011;27468;47.460;19.034;2022-10-18T06:49:47;38.58;;;21.48;;
41799;SDS011;27468;47.460;19.034;2022-10-18T06:52:12;36.33;;;21.25;;
41799;SDS011;27468;47.460;19.034;2022-10-18T06:54:44;37.78;;;21.00;;
41799;SDS011;27468;47.460;19.034;2022-10-18T06:57:09;39.25;;;22.17;;
41799;SDS011;27468;47.460;19.034;2022-10-18T06:59:34;36.80;;;21.70;;
41799;SDS011;27468;47.460;19.034;2022-10-18T07:02:00;32.05;;;20.48;;
41799;SDS011;27468;47.460;19.034;2022-10-18T07:04:28;32.05;;;20.38;;
41799;SDS011;27468;47.460;19.034;2022-10-18T07:06:54;32.63;;;20.02;;
41799;SDS011;27468;47.460;19.034;2022-10-18T07:09:20;35.38;;;20.60;;
41799;SDS011;27468;47.460;19.034;2022-10-18T07:11:45;32.42;;;19.50;;
41799;SDS011;27468;47.460;19.034;2022-10-18T07:14:11;33.40;;;20.00;;
41799;SDS011;27468;47.460;19.034;2022-10-18T07:16:36;30.58;;;18.88;;
41799;SDS011;27468;47.460;19.034;2022-10-18T07:19:02;27.42;;;18.48;;
41799;SDS011;27468;47.460;19.034;2022-10-18T07:21:27;31.63;;;19.73;;
41799;SDS011;27468;47.460;19.034;2022-10-18T07:23:53;27.88;;;18.27;;
41799;SDS011;27468;47.460;19.034;2022-10-18T07:26:26;30.10;;;19.70;;
41799;SDS011;27468;47.460;19.034;2022-10-18T07:29:09;28.92;;;19.80;;
41799;SDS011;27468;47.460;19.034;2022-10-18T07:31:36;29.17;;;18.23;;
41799;SDS011;27468;47.460;19.034;2022-10-18T07:34:06;28.98;;;18.02;;
41799;SDS011;27468;47.460;19.034;2022-10-18T07:36:32;26.25;;;16.85;;
41799;SDS011;27468;47.460;19.034;2022-10-18T07:38:58;26.80;;;16.25;;
41799;SDS011;27468;47.460;19.034;2022-10-18T07:41:23;25.05;;;16.88;;
41799;SDS011;27468;47.460;19.034;2022-10-18T07:43:50;24.23;;;15.68;;
41799;SDS011;27468;47.460;19.034;2022-10-18T07:46:16;27.30;;;16.35;;
41799;SDS011;27468;47.460;19.034;2022-10-18T07:48:43;26.75;;;16.38;;
41799;SDS011;27468;47.460;19.034;2022-10-18T07:51:09;24.08;;;15.63;;
41799;SDS011;27468;47.460;19.034;2022-10-18T07:53:35;27.00;;;16.63;;
41799;SDS011;27468;47.460;19.034;2022-10-18T07:56:02;24.50;;;15.82;;
41799;SDS011;27468;47.460;19.034;2022-10-18T07:58:30;22.67;;;15.25;;
41799;SDS011;27468;47.460;19.034;2022-10-18T08:00:56;24.17;;;17.42;;
41799;SDS011;27468;47.460;19.034;2022-10-18T08:03:22;25.40;;;16.63;;
41799;SDS011;27468;47.460;19.034;2022-10-18T08:05:51;25.00;;;16.75;;
41799;SDS011;27468;47.460;19.034;2022-10-18T08:08:17;24.40;;;16.38;;
41799;SDS011;27468;47.460;19.034;2022-10-18T08:10:44;25.75;;;17.30;;
41799;SDS011;27468;47.460;19.034;2022-10-18T08:13:09;26.58;;;17.55;;
41799;SDS011;27468;47.460;19.034;2022-10-18T08:15:35;26.25;;;17.45;;
41799;SDS011;27468;47.460;19.034;2022-10-18T08:18:00;26.00;;;17.08;;
41799;SDS011;27468;47.460;19.034;2022-10-18T08:20:25;26.80;;;18.30;;
41799;SDS011;27468;47.460;19.034;2022-10-18T08:22:51;22.98;;;16.48;;
41799;SDS011;27468;47.460;19.034;2022-10-18T08:25:16;26.83;;;17.33;;
41799;SDS011;27468;47.460;19.034;2022-10-18T08:27:42;24.25;;;15.32;;
41799;SDS011;27468;47.460;19.034;2022-10-18T08:30:08;23.88;;;16.02;;
41799;SDS011;27468;47.460;19.034;2022-10-18T08:32:34;21.33;;;14.80;;
41799;SDS011;27468;47.460;19.034;2022-10-18T08:35:00;22.15;;;13.63;;
41799;SDS011;27468;47.460;19.034;2022-10-18T08:37:25;19.77;;;12.48;;
41799;SDS011;27468;47.460;19.034;2022-10-18T08:39:51;18.35;;;12.50;;
41799;SDS011;27468;47.460;19.034;2022-10-18T08:45:05;17.92;;;12.43;;
41799;SDS011;27468;47.460;19.034;2022-10-18T08:47:34;16.25;;;12.15;;
41799;SDS011;27468;47.460;19.034;2022-10-18T08:50:03;13.50;;;9.47;;
41799;SDS011;27468;47.460;19.034;2022-10-18T08:55:10;16.63;;;10.63;;
41799;SDS011;27468;47.460;19.034;2022-10-18T08:57:41;16.70;;;11.63;;
41799;SDS011;27468;47.460;19.034;2022-10-18T09:00:13;15.68;;;11.48;;
41799;SDS011;27468;47.460;19.034;2022-10-18T09:16:17;12.15;;;9.88;;
41799;SDS011;27468;47.460;19.034;2022-10-18T09:19:02;15.27;;;9.63;;
41799;SDS011;27468;47.460;19.034;2022-10-18T09:21:42;12.55;;;9.18;;
41799;SDS011;27468;47.460;19.034;2022-10-18T09:27:14;14.60;;;9.18;;
41799;SDS011;27468;47.460;19.034;2022-10-18T09:35:24;11.13;;;7.82;;
41799;SDS011;27468;47.460;19.034;2022-10-18T09:37:54;11.75;;;7.53;;
41799;SDS011;27468;47.460;19.034;2022-10-18T09:40:28;15.38;;;9.85;;
41799;SDS011;27468;47.460;19.034;2022-10-18T09:43:00;13.93;;;8.43;;
41799;SDS011;27468;47.460;19.034;2022-10-18T09:45:34;11.02;;;7.72;;
41799;SDS011;27468;47.460;19.034;2022-10-18T09:50:40;13.45;;;9.10;;
41799;SDS011;27468;47.460;19.034;2022-10-18T09:55:52;10.80;;;8.15;;
41799;SDS011;27468;47.460;19.034;2022-10-18T09:58:23;13.07;;;7.82;;
41799;SDS011;27468;47.460;19.034;2022-10-18T10:00:54;10.75;;;7.47;;
41799;SDS011;27468;47.460;19.034;2022-10-18T10:03:20;10.23;;;7.75;;
41799;SDS011;27468;47.460;19.034;2022-10-18T10:05:45;10.85;;;7.30;;
41799;SDS011;27468;47.460;19.034;2022-10-18T10:08:11;10.05;;;7.22;;
41799;SDS011;27468;47.460;19.034;2022-10-18T10:10:40;11.68;;;6.43;;
41799;SDS011;27468;47.460;19.034;2022-10-18T10:13:15;11.85;;;6.72;;
41799;SDS011;27468;47.460;19.034;2022-10-18T10:15:56;8.40;;;5.72;;
41799;SDS011;27468;47.460;19.034;2022-10-18T10:18:33;10.02;;;6.70;;
41799;SDS011;27468;47.460;19.034;2022-10-18T10:21:03;11.02;;;5.97;;
41799;SDS011;27468;47.460;19.034;2022-10-18T10:23:32;8.85;;;5.70;;
41799;SDS011;27468;47.460;19.034;2022-10-18T10:28:45;7.72;;;5.40;;
41799;SDS011;27468;47.460;19.034;2022-10-18T10:33:44;6.10;;;5.20;;
41799;SDS011;27468;47.460;19.034;2022-10-18T10:36:15;8.00;;;5.72;;
41799;SDS011;27468;47.460;19.034;2022-10-18T10:38:42;8.90;;;5.43;;
41799;SDS011;27468;47.460;19.034;2022-10-18T10:41:21;9.80;;;5.18;;
41799;SDS011;27468;47.460;19.034;2022-10-18T10:43:48;9.98;;;5.90;;
41799;SDS011;27468;47.460;19.034;2022-10-18T10:46:17;9.43;;;5.82;;
41799;SDS011;27468;47.460;19.034;2022-10-18T10:48:45;7.43;;;5.55;;
41799;SDS011;27468;47.460;19.034;2022-10-18T10:51:17;9.77;;;5.65;;
41799;SDS011;27468;47.460;19.034;2022-10-18T10:59:29;8.48;;;5.53;;
41799;SDS011;27468;47.460;19.034;2022-10-18T11:04:38;7.88;;;5.30;;
41799;SDS011;27468;47.460;19.034;2022-10-18T11:18:36;6.63;;;5.18;;
41799;SDS011;27468;47.460;19.034;2022-10-18T11:20:55;9.88;;;5.45;;
41799;SDS011;27468;47.460;19.034;2022-10-18T11:23:39;8.68;;;5.47;;
41799;SDS011;27468;47.460;19.034;2022-10-18T11:28:42;8.57;;;4.70;;
41799;SDS011;27468;47.460;19.034;2022-10-18T11:31:20;9.90;;;5.25;;
41799;SDS011;27468;47.460;19.034;2022-10-18T11:36:44;6.57;;;4.60;;
41799;SDS011;27468;47.460;19.034;2022-10-18T11:47:48;7.10;;;4.57;;
41799;SDS011;27468;47.460;19.034;2022-10-18T11:56:34;6.85;;;4.40;;
41799;SDS011;27468;47.460;19.034;2022-10-18T11:59:08;10.45;;;4.60;;
41799;SDS011;27468;47.460;19.034;2022-10-18T12:04:42;5.43;;;4.40;;
41799;SDS011;27468;47.460;19.034;2022-10-18T12:09:43;5.80;;;4.38;;
41799;SDS011;27468;47.460;19.034;2022-10-18T12:12:18;5.68;;;3.97;;
41799;SDS011;27468;47.460;19.034;2022-10-18T12:15:04;5.38;;;4.35;;
41799;SDS011;27468;47.460;19.034;2022-10-18T12:17:41;6.85;;;4.00;;
41799;SDS011;27468;47.460;19.034;2022-10-18T12:21:09;6.97;;;4.13;;
41799;SDS011;27468;47.460;19.034;2022-10-18T12:23:21;4.93;;;4.20;;
41799;SDS011;27468;47.460;19.034;2022-10-18T12:26:01;4.93;;;4.25;;
41799;SDS011;27468;47.460;19.034;2022-10-18T12:28:32;5.43;;;4.00;;
41799;SDS011;27468;47.460;19.034;2022-10-18T12:33:29;5.53;;;4.00;;
41799;SDS011;27468;47.460;19.034;2022-10-18T12:38:47;6.45;;;4.28;;
41799;SDS011;27468;47.460;19.034;2022-10-18T12:41:21;7.30;;;4.15;;
41799;SDS011;27468;47.460;19.034;2022-10-18T12:43:56;5.30;;;4.15;;
41799;SDS011;27468;47.460;19.034;2022-10-18T12:46:53;6.00;;;4.22;;
41799;SDS011;27468;47.460;19.034;2022-10-18T12:49:30;5.10;;;4.00;;
41799;SDS011;27468;47.460;19.034;2022-10-18T12:51:58;4.93;;;3.90;;
41799;SDS011;27468;47.460;19.034;2022-10-18T12:54:30;5.15;;;3.80;;
41799;SDS011;27468;47.460;19.034;2022-10-18T12:56:58;8.63;;;4.38;;
41799;SDS011;27468;47.460;19.034;2022-10-18T13:09:31;5.03;;;3.75;;
41799;SDS011;27468;47.460;19.034;2022-10-18T13:20:25;7.15;;;3.75;;
41799;SDS011;27468;47.460;19.034;2022-10-18T13:33:48;5.95;;;3.83;;
41799;SDS011;27468;47.460;19.034;2022-10-18T13:41:25;7.65;;;3.65;;
41799;SDS011;27468;47.460;19.034;2022-10-18T13:54:54;7.40;;;3.88;;
41799;SDS011;27468;47.460;19.034;2022-10-18T14:08:21;5.82;;;3.80;;
41799;SDS011;27468;47.460;19.034;2022-10-18T14:13:29;6.80;;;3.80;;
41799;SDS011;27468;47.460;19.034;2022-10-18T14:16:05;5.72;;;3.67;;
41799;SDS011;27468;47.460;19.034;2022-10-18T14:18:48;5.28;;;3.70;;
41799;SDS011;27468;47.460;19.034;2022-10-18T14:21:20;5.20;;;3.75;;
41799;SDS011;27468;47.460;19.034;2022-10-18T14:23:48;7.75;;;4.03;;
41799;SDS011;27468;47.460;19.034;2022-10-18T14:26:18;5.18;;;3.50;;
41799;SDS011;27468;47.460;19.034;2022-10-18T14:28:45;5.80;;;3.42;;
41799;SDS011;27468;47.460;19.034;2022-10-18T14:31:29;4.80;;;3.38;;
41799;SDS011;27468;47.460;19.034;2022-10-18T14:33:56;5.47;;;3.58;;
41799;SDS011;27468;47.460;19.034;2022-10-18T14:36:22;7.30;;;3.50;;
41799;SDS011;27468;47.460;19.034;2022-10-18T14:38:57;7.57;;;3.92;;
41799;SDS011;27468;47.460;19.034;2022-10-18T14:41:23;6.22;;;3.72;;
41799;SDS011;27468;47.460;19.034;2022-10-18T14:43:52;6.45;;;3.22;;
41799;SDS011;27468;47.460;19.034;2022-10-18T14:46:33;4.82;;;3.47;;
41799;SDS011;27468;47.460;19.034;2022-10-18T14:49:08;4.35;;;3.55;;
41799;SDS011;27468;47.460;19.034;2022-10-18T14:51:35;5.75;;;3.53;;
41799;SDS011;27468;47.460;19.034;2022-10-18T14:54:04;12.82;;;4.88;;
41799;SDS011;27468;47.460;19.034;2022-10-18T14:56:35;5.95;;;3.67;;
41799;SDS011;27468;47.460;19.034;2022-10-18T14:59:04;5.95;;;3.58;;
41799;SDS011;27468;47.460;19.034;2022-10-18T15:01:37;5.18;;;3.85;;
41799;SDS011;27468;47.460;19.034;2022-10-18T15:04:08;9.77;;;3.83;;
41799;SDS011;27468;47.460;19.034;2022-10-18T15:06:35;7.43;;;3.85;;
41799;SDS011;27468;47.460;19.034;2022-10-18T15:09:07;6.28;;;4.03;;
41799;SDS011;27468;47.460;19.034;2022-10-18T15:11:35;7.22;;;3.63;;
41799;SDS011;27468;47.460;19.034;2022-10-18T15:14:02;7.50;;;4.20;;
41799;SDS011;27468;47.460;19.034;2022-10-18T15:16:33;6.53;;;3.80;;
41799;SDS011;27468;47.460;19.034;2022-10-18T15:21:29;7.50;;;4.00;;
41799;SDS011;27468;47.460;19.034;2022-10-18T15:24:17;6.18;;;4.55;;
41799;SDS011;27468;47.460;19.034;2022-10-18T15:26:45;6.47;;;4.10;;
41799;SDS011;27468;47.460;19.034;2022-10-18T15:29:16;4.50;;;3.63;;
41799;SDS011;27468;47.460;19.034;2022-10-18T15:31:46;8.30;;;4.03;;
41799;SDS011;27468;47.460;19.034;2022-10-18T15:36:52;6.78;;;3.90;;
41799;SDS011;27468;47.460;19.034;2022-10-18T15:39:20;6.30;;;4.20;;
41799;SDS011;27468;47.460;19.034;2022-10-18T15:44:21;7.63;;;4.45;;
41799;SDS011;27468;47.460;19.034;2022-10-18T15:46:50;6.90;;;4.47;;
41799;SDS011;27468;47.460;19.034;2022-10-18T15:55:00;7.10;;;4.40;;
41799;SDS011;27468;47.460;19.034;2022-10-18T15:57:46;6.80;;;5.07;;
41799;SDS011;27468;47.460;19.034;2022-10-18T16:00:14;8.40;;;4.70;;
41799;SDS011;27468;47.460;19.034;2022-10-18T16:05:10;7.15;;;5.25;;
41799;SDS011;27468;47.460;19.034;2022-10-18T16:07:40;7.38;;;6.00;;
41799;SDS011;27468;47.460;19.034;2022-10-18T16:10:12;10.57;;;5.82;;
41799;SDS011;27468;47.460;19.034;2022-10-18T16:15:04;9.93;;;5.70;;
41799;SDS011;27468;47.460;19.034;2022-10-18T16:17:30;8.07;;;5.55;;
41799;SDS011;27468;47.460;19.034;2022-10-18T16:19:55;7.75;;;5.60;;
41799;SDS011;27468;47.460;19.034;2022-10-18T16:22:20;7.85;;;5.60;;
41799;SDS011;27468;47.460;19.034;2022-10-18T16:24:46;10.95;;;6.15;;
41799;SDS011;27468;47.460;19.034;2022-10-18T16:27:11;12.13;;;5.97;;
41799;SDS011;27468;47.460;19.034;2022-10-18T16:29:37;8.70;;;6.45;;
41799;SDS011;27468;47.460;19.034;2022-10-18T16:32:02;9.45;;;6.30;;
41799;SDS011;27468;47.460;19.034;2022-10-18T16:34:28;12.18;;;6.40;;
41799;SDS011;27468;47.460;19.034;2022-10-18T16:36:56;10.98;;;5.85;;
41799;SDS011;27468;47.460;19.034;2022-10-18T16:39:21;11.43;;;6.43;;
41799;SDS011;27468;47.460;19.034;2022-10-18T16:41:47;11.95;;;6.70;;
41799;SDS011;27468;47.460;19.034;2022-10-18T16:44:13;9.43;;;6.35;;
41799;SDS011;27468;47.460;19.034;2022-10-18T16:46:40;12.88;;;6.82;;
41799;SDS011;27468;47.460;19.034;2022-10-18T16:49:06;14.40;;;7.10;;
41799;SDS011;27468;47.460;19.034;2022-10-18T16:51:41;9.18;;;6.85;;
41799;SDS011;27468;47.460;19.034;2022-10-18T16:54:06;15.82;;;7.05;;
41799;SDS011;27468;47.460;19.034;2022-10-18T16:56:32;10.63;;;6.78;;
41799;SDS011;27468;47.460;19.034;2022-10-18T16:58:57;12.00;;;7.40;;
41799;SDS011;27468;47.460;19.034;2022-10-18T17:01:24;12.35;;;7.35;;
41799;SDS011;27468;47.460;19.034;2022-10-18T17:03:50;14.73;;;8.13;;
41799;SDS011;27468;47.460;19.034;2022-10-18T17:08:46;13.18;;;8.02;;
41799;SDS011;27468;47.460;19.034;2022-10-18T17:11:13;12.70;;;8.82;;
41799;SDS011;27468;47.460;19.034;2022-10-18T17:13:39;17.27;;;9.13;;
41799;SDS011;27468;47.460;19.034;2022-10-18T17:16:05;14.60;;;9.27;;
41799;SDS011;27468;47.460;19.034;2022-10-18T17:18:31;16.88;;;9.23;;
41799;SDS011;27468;47.460;19.034;2022-10-18T17:20:57;17.33;;;9.73;;
41799;SDS011;27468;47.460;19.034;2022-10-18T17:23:26;15.43;;;9.30;;
41799;SDS011;27468;47.460;19.034;2022-10-18T17:25:52;18.10;;;10.52;;
41799;SDS011;27468;47.460;19.034;2022-10-18T17:28:18;18.25;;;10.07;;
41799;SDS011;27468;47.460;19.034;2022-10-18T17:30:44;19.30;;;10.65;;
41799;SDS011;27468;47.460;19.034;2022-10-18T17:33:10;19.23;;;10.30;;
41799;SDS011;27468;47.460;19.034;2022-10-18T17:35:37;14.73;;;9.82;;
41799;SDS011;27468;47.460;19.034;2022-10-18T17:38:03;20.02;;;11.05;;
41799;SDS011;27468;47.460;19.034;2022-10-18T17:40:30;16.42;;;10.40;;
41799;SDS011;27468;47.460;19.034;2022-10-18T17:42:56;17.17;;;11.18;;
41799;SDS011;27468;47.460;19.034;2022-10-18T17:45:21;19.00;;;10.98;;